Time;durP1;ratioP1;P1;durP2;ratioP2;P2;SDS_P1;SDS_P2;PMS_P1;PMS_P2;Temp;Humidity;BMP_temperature;BMP_pressure;BME280_temperature;BME280_humidity;BME280_pressure;Samples;Min_cycle;Max_cycle;Signal;HPM_P1;HPM_P2
2023/03/12 00:00:00;;;;;;;18.27;11.48;;;7.20;99.90;;;;;;5096859;27;20098;-74
2023/03/12 00:02:26;;;;;;;20.58;12.35;;;7.10;99.90;;;;;;5083047;27;20081;-73
2023/03/12 00:04:52;;;;;;;24.55;13.15;;;7.10;99.90;;;;;;5062439;28;20474;-74
2023/03/12 00:07:17;;;;;;;23.17;12.50;;;7.10;99.90;;;;;;5104867;27;20541;-74
2023/03/12 00:09:44;;;;;;;22.75;12.30;;;7.20;99.90;;;;;;5115995;27;20033;-74
2023/03/12 00:12:10;;;;;;;22.73;13.60;;;7.20;99.90;;;;;;5116560;27;20080;-74
2023/03/12 00:14:36;;;;;;;21.05;11.90;;;7.20;99.90;;;;;;5100066;28;20047;-74
2023/03/12 00:17:01;;;;;;;23.25;12.40;;;7.30;99.90;;;;;;5093599;28;20383;-74
2023/03/12 00:19:27;;;;;;;23.58;12.65;;;7.30;99.90;;;;;;5081487;28;20027;-74
2023/03/12 00:21:52;;;;;;;22.83;12.32;;;7.20;99.90;;;;;;5080640;27;20364;-73
2023/03/12 00:24:18;;;;;;;21.55;12.93;;;7.20;99.90;;;;;;5099756;27;20035;-74
2023/03/12 00:26:44;;;;;;;24.58;13.50;;;7.20;99.90;;;;;;5121218;27;20019;-74
2023/03/12 00:29:09;;;;;;;23.05;12.30;;;7.20;99.90;;;;;;5098939;27;20023;-74
2023/03/12 00:31:35;;;;;;;19.02;11.55;;;7.20;99.90;;;;;;5108299;27;20032;-74
2023/03/12 00:34:01;;;;;;;22.58;12.38;;;7.20;99.90;;;;;;5101829;28;20035;-74
2023/03/12 00:36:30;;;;;;;20.48;12.20;;;7.30;99.90;;;;;;5104091;27;20472;-75
2023/03/12 00:38:57;;;;;;;20.75;11.80;;;7.30;99.90;;;;;;5110915;27;20027;-74
2023/03/12 00:41:24;;;;;;;25.00;13.85;;;7.40;99.90;;;;;;5075240;27;20030;-74
2023/03/12 00:43:50;;;;;;;22.13;12.35;;;7.40;99.90;;;;;;5123561;27;20497;-74
2023/03/12 00:46:17;;;;;;;20.45;11.63;;;7.40;99.90;;;;;;5119068;27;20261;-74
2023/03/12 00:48:43;;;;;;;20.75;11.73;;;7.40;99.90;;;;;;5121877;27;20038;-74
2023/03/12 00:51:10;;;;;;;18.77;11.82;;;7.40;99.90;;;;;;5094148;28;20078;-74
2023/03/12 00:53:36;;;;;;;20.13;11.68;;;7.50;99.90;;;;;;5081484;28;20407;-73
2023/03/12 00:56:03;;;;;;;20.70;12.07;;;7.60;99.90;;;;;;5066695;27;20159;-74
2023/03/12 00:58:28;;;;;;;22.48;11.73;;;7.60;99.90;;;;;;5095987;27;20654;-74
2023/03/12 01:00:54;;;;;;;21.35;11.55;;;7.60;99.90;;;;;;5120542;27;20050;-74
2023/03/12 01:03:19;;;;;;;20.52;10.98;;;7.70;99.90;;;;;;5112217;27;20027;-74
2023/03/12 01:05:45;;;;;;;22.55;11.38;;;7.70;99.90;;;;;;5108435;27;20095;-74
2023/03/12 01:08:11;;;;;;;18.42;9.55;;;7.70;99.90;;;;;;5116126;27;20042;-74
2023/03/12 01:10:41;;;;;;;20.08;9.30;;;7.80;99.90;;;;;;5103399;27;20470;-73
2023/03/12 01:13:07;;;;;;;23.45;9.25;;;7.80;99.90;;;;;;5119647;27;20044;-73
2023/03/12 01:15:33;;;;;;;22.08;8.55;;;7.90;99.90;;;;;;5118947;27;20020;-72
2023/03/12 01:17:58;;;;;;;17.73;8.23;;;7.90;99.90;;;;;;5104364;27;20455;-72
2023/03/12 01:20:24;;;;;;;20.30;7.72;;;8.00;99.90;;;;;;5101673;27;20061;-73
2023/03/12 01:22:50;;;;;;;19.75;6.55;;;8.00;99.90;;;;;;5120568;27;20439;-74
2023/03/12 01:25:16;;;;;;;18.42;5.28;;;8.10;99.90;;;;;;5094269;27;20026;-73
2023/03/12 01:27:41;;;;;;;17.58;5.80;;;8.20;99.90;;;;;;5115955;27;20092;-72
2023/03/12 01:30:08;;;;;;;20.75;5.55;;;8.20;99.90;;;;;;5109705;27;20023;-73
2023/03/12 01:32:34;;;;;;;20.55;6.38;;;8.20;99.90;;;;;;5102827;27;20177;-73
2023/03/12 01:35:00;;;;;;;27.05;6.63;;;8.30;99.90;;;;;;5101771;27;20531;-72
2023/03/12 01:37:26;;;;;;;22.00;6.85;;;8.30;99.90;;;;;;5081419;28;20047;-72
2023/03/12 01:39:52;;;;;;;22.95;6.45;;;8.40;99.90;;;;;;5089963;28;20516;-73
2023/03/12 01:42:18;;;;;;;29.83;8.02;;;8.40;99.90;;;;;;5107943;27;20213;-73
2023/03/12 01:45:01;;;;;;;27.05;7.65;;;8.40;99.90;;;;;;5119096;27;20043;-73
2023/03/12 01:47:30;;;;;;;20.42;6.32;;;8.50;99.90;;;;;;5107689;27;20101;-73
2023/03/12 01:49:58;;;;;;;32.10;6.93;;;8.50;99.90;;;;;;5077514;28;20039;-73
2023/03/12 01:52:28;;;;;;;28.35;7.88;;;8.40;99.90;;;;;;5113212;27;20519;-72
2023/03/12 01:55:02;;;;;;;34.30;7.57;;;8.30;99.90;;;;;;5104595;27;20127;-73
2023/03/12 01:57:38;;;;;;;31.67;7.10;;;8.30;99.90;;;;;;5121313;27;20403;-73
2023/03/12 02:00:12;;;;;;;27.63;5.95;;;8.30;99.90;;;;;;5118801;27;20071;-72
2023/03/12 02:02:39;;;;;;;27.17;6.47;;;8.20;99.90;;;;;;5093576;27;20630;-73
2023/03/12 02:05:34;;;;;;;30.40;6.43;;;8.30;99.90;;;;;;5096431;27;20080;-73
2023/03/12 02:08:01;;;;;;;27.25;6.07;;;8.30;99.90;;;;;;5079742;27;20047;-72
2023/03/12 02:10:27;;;;;;;27.13;5.47;;;8.40;99.90;;;;;;5119561;27;20026;-72
2023/03/12 02:12:53;;;;;;;37.67;6.90;;;8.40;99.90;;;;;;5117996;27;20047;-73
2023/03/12 02:15:18;;;;;;;33.17;5.57;;;8.40;99.90;;;;;;5120885;27;20094;-72
2023/03/12 02:17:44;;;;;;;35.85;5.38;;;8.50;99.90;;;;;;5116755;27;20257;-73
2023/03/12 02:20:18;;;;;;;31.77;6.55;;;8.50;99.90;;;;;;5061534;28;20024;-73
2023/03/12 02:22:53;;;;;;;35.22;5.35;;;8.50;99.90;;;;;;5075760;27;20381;-72
2023/03/12 02:25:27;;;;;;;28.95;6.53;;;8.60;99.90;;;;;;5113274;27;20106;-73
2023/03/12 02:27:53;;;;;;;32.90;4.97;;;8.60;99.90;;;;;;5108959;27;20052;-73
2023/03/12 02:30:19;;;;;;;36.30;5.22;;;8.70;99.90;;;;;;5098139;28;20028;-72
2023/03/12 02:32:49;;;;;;;27.63;4.78;;;8.60;99.90;;;;;;5081906;28;20043;-73
2023/03/12 02:35:16;;;;;;;40.78;6.07;;;8.60;99.90;;;;;;5078327;28;20078;-73
2023/03/12 02:37:54;;;;;;;22.13;4.40;;;8.60;99.90;;;;;;5066237;27;21760;-73
2023/03/12 02:40:41;;;;;;;34.08;4.50;;;8.50;99.90;;;;;;5092046;27;20031;-75
2023/03/12 02:43:08;;;;;;;27.90;4.80;;;8.60;99.90;;;;;;5121383;27;20143;-75
2023/03/12 02:45:35;;;;;;;30.63;4.80;;;8.50;99.90;;;;;;5115364;27;20092;-75
2023/03/12 02:48:02;;;;;;;35.17;4.60;;;8.50;99.90;;;;;;5114974;27;20134;-75
2023/03/12 02:50:28;;;;;;;36.05;4.22;;;8.50;99.90;;;;;;5103293;27;20398;-75
2023/03/12 02:52:54;;;;;;;30.20;4.05;;;8.50;99.90;;;;;;5101627;27;20031;-74
2023/03/12 02:55:19;;;;;;;25.30;4.30;;;8.50;99.90;;;;;;5082889;27;20043;-75
2023/03/12 02:57:45;;;;;;;27.60;4.15;;;8.40;99.90;;;;;;5093459;27;20027;-75
2023/03/12 03:00:13;;;;;;;24.17;4.30;;;8.30;99.90;;;;;;5116551;27;20066;-75
2023/03/12 03:02:39;;;;;;;34.70;4.95;;;8.20;99.90;;;;;;5084503;28;20451;-75
2023/03/12 03:05:06;;;;;;;29.50;4.10;;;8.20;99.90;;;;;;5097260;27;20030;-75
2023/03/12 03:07:32;;;;;;;29.23;4.18;;;8.30;99.90;;;;;;5095937;27;20050;-74
2023/03/12 03:10:02;;;;;;;38.00;4.57;;;8.40;99.90;;;;;;5106189;27;20329;-75
2023/03/12 03:12:29;;;;;;;35.53;5.07;;;8.40;99.90;;;;;;5085960;27;20509;-75
2023/03/12 03:14:55;;;;;;;33.33;4.65;;;8.40;99.90;;;;;;5115946;27;20042;-74
2023/03/12 03:17:23;;;;;;;36.63;4.47;;;8.30;99.90;;;;;;5098445;27;20423;-75
2023/03/12 03:19:49;;;;;;;34.15;4.30;;;8.10;99.90;;;;;;5080955;27;20042;-75
2023/03/12 03:22:15;;;;;;;29.58;4.38;;;8.00;99.90;;;;;;5115187;27;20023;-75
2023/03/12 03:24:41;;;;;;;33.92;4.50;;;7.90;99.90;;;;;;5113348;27;20211;-75
2023/03/12 03:27:07;;;;;;;36.17;3.95;;;7.90;99.90;;;;;;5100984;27;20419;-75
2023/03/12 03:29:32;;;;;;;29.75;3.90;;;7.80;99.90;;;;;;5100588;27;20368;-74
2023/03/12 03:31:58;;;;;;;35.72;4.30;;;7.70;99.90;;;;;;5100954;27;20078;-75
2023/03/12 03:34:24;;;;;;;20.15;3.63;;;7.60;99.90;;;;;;5087670;27;20494;-74
2023/03/12 03:36:49;;;;;;;26.65;3.92;;;7.60;99.90;;;;;;5113644;27;20107;-74
2023/03/12 03:39:15;;;;;;;23.33;3.47;;;7.60;99.90;;;;;;5100241;27;20057;-74
2023/03/12 03:41:41;;;;;;;28.55;3.25;;;7.60;99.90;;;;;;5109760;27;20111;-75
2023/03/12 03:44:06;;;;;;;36.70;4.32;;;7.70;99.90;;;;;;5114972;27;20031;-75
2023/03/12 03:46:34;;;;;;;26.73;2.97;;;7.70;99.90;;;;;;5101736;27;20040;-75
2023/03/12 03:49:00;;;;;;;36.88;4.65;;;7.80;99.90;;;;;;5099713;27;20110;-75
2023/03/12 03:51:26;;;;;;;40.47;4.40;;;7.90;99.90;;;;;;5116779;27;20031;-75
2023/03/12 03:53:52;;;;;;;31.23;4.70;;;8.00;99.90;;;;;;5080710;28;20058;-75
2023/03/12 03:56:18;;;;;;;38.58;4.40;;;8.10;99.90;;;;;;5080045;28;20440;-75
2023/03/12 03:58:43;;;;;;;36.45;5.03;;;8.20;99.90;;;;;;5113428;27;20054;-75
2023/03/12 04:01:11;;;;;;;40.63;4.57;;;8.10;99.90;;;;;;5110411;27;20046;-75
2023/03/12 04:03:36;;;;;;;28.17;3.90;;;8.00;99.90;;;;;;5092090;27;20280;-75
2023/03/12 04:06:04;;;;;;;31.63;4.55;;;8.00;99.90;;;;;;5105285;27;20050;-75
2023/03/12 04:08:31;;;;;;;30.77;5.22;;;7.90;99.90;;;;;;5094333;28;20141;-75
2023/03/12 04:10:57;;;;;;;36.25;3.95;;;7.90;99.90;;;;;;5076312;28;20023;-74
2023/03/12 04:13:23;;;;;;;26.45;4.00;;;7.80;99.90;;;;;;5099586;27;20498;-75
2023/03/12 04:15:51;;;;;;;28.73;4.05;;;7.70;99.90;;;;;;5096515;28;20027;-75
2023/03/12 04:18:17;;;;;;;29.20;4.45;;;7.50;99.90;;;;;;5098177;28;20047;-75
2023/03/12 04:20:43;;;;;;;34.40;4.50;;;7.40;99.90;;;;;;5087583;28;20102;-75
2023/03/12 04:23:09;;;;;;;37.03;5.57;;;7.20;99.90;;;;;;5089045;27;20542;-75
2023/03/12 04:25:35;;;;;;;25.15;4.47;;;7.20;99.90;;;;;;5097380;27;20067;-75
2023/03/12 04:28:01;;;;;;;33.30;5.60;;;7.20;99.90;;;;;;5112404;27;20024;-75
2023/03/12 04:30:27;;;;;;;47.40;5.50;;;7.10;99.90;;;;;;5078809;28;20036;-74
2023/03/12 04:32:54;;;;;;;39.28;4.72;;;7.00;99.90;;;;;;5082630;28;20501;-75
2023/03/12 04:35:20;;;;;;;42.20;6.57;;;7.10;99.90;;;;;;5088695;28;20031;-75
2023/03/12 04:37:46;;;;;;;33.05;4.88;;;7.00;99.90;;;;;;5100855;28;21022;-74
2023/03/12 04:40:12;;;;;;;40.10;5.93;;;7.00;99.90;;;;;;5114922;28;20099;-74
2023/03/12 04:42:38;;;;;;;40.83;6.60;;;7.00;99.90;;;;;;5113451;28;20161;-74
2023/03/12 04:45:05;;;;;;;43.58;5.90;;;6.90;99.90;;;;;;5116717;28;20106;-74
2023/03/12 04:47:32;;;;;;;38.50;5.45;;;7.00;99.90;;;;;;5108760;28;20031;-74
2023/03/12 04:49:58;;;;;;;38.70;5.50;;;7.00;99.90;;;;;;5115703;28;20019;-74
2023/03/12 04:52:24;;;;;;;43.58;5.82;;;7.00;99.90;;;;;;5111473;28;20027;-73
2023/03/12 04:54:49;;;;;;;40.50;4.55;;;7.00;99.90;;;;;;5095171;28;20428;-74
2023/03/12 04:57:15;;;;;;;34.15;4.65;;;7.00;99.90;;;;;;5081227;28;20023;-74
2023/03/12 04:59:41;;;;;;;45.85;5.35;;;7.00;99.90;;;;;;5096771;28;20079;-75
2023/03/12 05:02:07;;;;;;;38.15;5.40;;;7.00;99.90;;;;;;5110003;28;20605;-74
2023/03/12 05:04:32;;;;;;;45.15;5.95;;;7.00;99.90;;;;;;5097324;28;20035;-74
2023/03/12 05:06:58;;;;;;;41.13;5.25;;;7.00;99.90;;;;;;5095742;28;20023;-73
2023/03/12 05:09:24;;;;;;;44.83;4.78;;;6.90;99.90;;;;;;5114202;27;20035;-74
2023/03/12 05:11:49;;;;;;;40.55;4.97;;;6.90;99.90;;;;;;5105891;27;20023;-74
2023/03/12 05:14:15;;;;;;;44.35;6.43;;;6.90;99.90;;;;;;5115225;27;20039;-74
2023/03/12 05:16:41;;;;;;;41.65;5.60;;;6.90;99.90;;;;;;5118315;27;20494;-74
2023/03/12 05:19:07;;;;;;;49.08;5.38;;;6.90;99.90;;;;;;5096643;27;20044;-74
2023/03/12 05:21:32;;;;;;;42.90;5.55;;;6.90;99.90;;;;;;5060256;28;20138;-74
2023/03/12 05:23:59;;;;;;;47.92;5.60;;;7.00;99.90;;;;;;5108415;27;20019;-74
2023/03/12 05:26:30;;;;;;;40.80;4.75;;;7.00;99.90;;;;;;5119157;27;20092;-74
2023/03/12 05:28:58;;;;;;;47.13;5.05;;;7.00;99.90;;;;;;5095525;27;20338;-74
2023/03/12 05:31:24;;;;;;;47.35;5.70;;;7.10;99.90;;;;;;5069175;28;20114;-75
2023/03/12 05:33:50;;;;;;;50.90;6.70;;;7.30;99.90;;;;;;5084473;27;20077;-74
2023/03/12 05:36:16;;;;;;;50.60;5.32;;;7.30;99.90;;;;;;5119106;27;20051;-73
2023/03/12 05:38:41;;;;;;;47.35;6.00;;;7.40;99.90;;;;;;5108296;27;20435;-73
2023/03/12 05:41:08;;;;;;;53.75;6.32;;;7.40;99.90;;;;;;5116409;27;20051;-74
2023/03/12 05:43:34;;;;;;;40.83;5.70;;;7.40;99.90;;;;;;5098577;27;20028;-75
2023/03/12 05:46:03;;;;;;;39.95;5.15;;;7.40;99.90;;;;;;5096929;27;20108;-75
2023/03/12 05:48:29;;;;;;;49.28;6.45;;;7.40;99.90;;;;;;5115463;27;20037;-74
2023/03/12 05:50:55;;;;;;;42.33;5.00;;;7.40;99.90;;;;;;5113225;27;20441;-74
2023/03/12 05:53:21;;;;;;;57.08;5.82;;;7.40;99.90;;;;;;5115454;27;20039;-74
2023/03/12 05:55:47;;;;;;;48.40;5.50;;;7.30;99.90;;;;;;5098556;27;20505;-74
2023/03/12 05:58:12;;;;;;;38.90;4.90;;;7.20;99.90;;;;;;5118420;27;20027;-74
2023/03/12 06:00:40;;;;;;;38.25;4.85;;;7.10;99.90;;;;;;5117728;27;20871;-73
2023/03/12 06:03:06;;;;;;;44.13;5.28;;;7.10;99.90;;;;;;5086632;28;20027;-74
2023/03/12 06:05:34;;;;;;;47.65;5.25;;;7.00;99.90;;;;;;5098341;27;20035;-74
2023/03/12 06:08:00;;;;;;;39.70;4.80;;;7.00;99.90;;;;;;5094100;27;20316;-75
2023/03/12 06:10:27;;;;;;;56.90;5.90;;;7.00;99.90;;;;;;5100994;27;20178;-73
2023/03/12 06:12:53;;;;;;;56.78;7.13;;;7.10;99.90;;;;;;5118447;27;20067;-74
2023/03/12 06:15:18;;;;;;;63.28;8.40;;;7.20;99.90;;;;;;5117256;27;20424;-74
2023/03/12 06:17:44;;;;;;;55.30;7.80;;;7.20;99.90;;;;;;5117609;27;20118;-74
2023/03/12 06:20:10;;;;;;;60.75;6.05;;;7.30;99.90;;;;;;5097355;27;20281;-74
2023/03/12 06:22:36;;;;;;;45.22;6.15;;;7.30;99.90;;;;;;5098943;27;20031;-73
2023/03/12 06:25:03;;;;;;;48.75;6.13;;;7.30;99.90;;;;;;5109820;27;20492;-74
2023/03/12 06:27:29;;;;;;;49.83;5.78;;;7.30;99.90;;;;;;5116633;27;20283;-74
2023/03/12 06:29:54;;;;;;;48.90;5.95;;;7.30;99.90;;;;;;5116177;27;20023;-74
2023/03/12 06:32:20;;;;;;;49.13;5.25;;;7.30;99.90;;;;;;5099300;27;20080;-74
2023/03/12 06:34:46;;;;;;;46.50;5.93;;;7.40;99.90;;;;;;5097797;28;20080;-74
2023/03/12 06:37:11;;;;;;;53.75;6.18;;;7.40;99.90;;;;;;5095413;27;20614;-74
2023/03/12 06:39:37;;;;;;;47.95;6.20;;;7.40;99.90;;;;;;5111095;27;20482;-75
2023/03/12 06:42:04;;;;;;;44.05;5.65;;;7.40;99.90;;;;;;5114769;27;20113;-73
2023/03/12 06:44:30;;;;;;;43.50;6.00;;;7.50;99.90;;;;;;5094440;27;20472;-74
2023/03/12 06:46:55;;;;;;;41.90;6.47;;;7.60;99.90;;;;;;5113360;27;20509;-74
2023/03/12 06:49:21;;;;;;;44.55;5.50;;;7.60;99.90;;;;;;5115849;27;20035;-74
2023/03/12 06:51:47;;;;;;;50.47;5.95;;;7.80;99.90;;;;;;5114811;27;20038;-75
2023/03/12 06:54:12;;;;;;;61.58;6.57;;;8.00;99.90;;;;;;5080496;28;20044;-75
2023/03/12 06:56:38;;;;;;;49.65;5.97;;;8.20;99.90;;;;;;5102477;27;20034;-74
2023/03/12 06:59:04;;;;;;;58.97;6.30;;;8.20;99.90;;;;;;5098502;27;20067;-74
2023/03/12 07:01:29;;;;;;;49.30;6.75;;;8.60;99.90;;;;;;5114565;27;20019;-74
2023/03/12 07:03:55;;;;;;;42.15;4.55;;;9.00;99.90;;;;;;5109614;27;20034;-75
2023/03/12 07:06:23;;;;;;;69.50;15.68;;;9.10;99.90;;;;;;5116960;27;20023;-74
2023/03/12 07:08:49;;;;;;;48.40;6.88;;;9.20;99.90;;;;;;5081607;28;20104;-75
2023/03/12 07:11:15;;;;;;;43.25;4.53;;;9.20;99.90;;;;;;5077639;27;20032;-75
2023/03/12 07:13:40;;;;;;;29.60;4.65;;;9.20;99.90;;;;;;5057411;28;20503;-73
2023/03/12 07:16:07;;;;;;;41.25;5.88;;;9.10;99.90;;;;;;5104186;27;20068;-74
2023/03/12 07:18:33;;;;;;;41.83;5.45;;;9.10;99.90;;;;;;5099265;27;20038;-75
2023/03/12 07:20:59;;;;;;;54.17;7.82;;;9.10;99.90;;;;;;5067299;28;20104;-73
2023/03/12 07:23:25;;;;;;;47.25;6.63;;;9.00;99.90;;;;;;5074990;28;20046;-75
2023/03/12 07:25:51;;;;;;;36.47;5.25;;;8.80;99.90;;;;;;5103044;27;20035;-75
2023/03/12 07:28:18;;;;;;;45.90;5.53;;;8.80;99.90;;;;;;5084804;27;20041;-75
2023/03/12 07:30:49;;;;;;;52.70;5.63;;;8.80;99.90;;;;;;5104783;27;20444;-74
2023/03/12 07:33:16;;;;;;;37.25;5.13;;;9.10;99.90;;;;;;5096763;27;20145;-74
2023/03/12 07:35:42;;;;;;;50.30;5.82;;;9.40;99.90;;;;;;5081065;28;20046;-75
2023/03/12 07:38:08;;;;;;;40.70;6.15;;;10.00;99.90;;;;;;5076386;28;20140;-74
2023/03/12 07:40:34;;;;;;;40.83;5.95;;;10.40;99.90;;;;;;5096869;27;20096;-74
2023/03/12 07:43:00;;;;;;;39.25;5.32;;;10.60;99.90;;;;;;5100333;27;20023;-74
2023/03/12 07:45:27;;;;;;;32.85;5.30;;;10.70;99.90;;;;;;5097221;27;20110;-74
2023/03/12 07:47:52;;;;;;;27.38;4.97;;;10.90;99.90;;;;;;5095828;27;20023;-75
2023/03/12 07:50:18;;;;;;;32.70;5.68;;;11.30;99.90;;;;;;5095805;28;20039;-75
2023/03/12 07:52:45;;;;;;;42.92;5.43;;;11.60;99.90;;;;;;5077285;28;20035;-75
2023/03/12 07:55:11;;;;;;;27.77;4.35;;;12.30;99.90;;;;;;5095848;28;20103;-75
2023/03/12 07:57:37;;;;;;;32.10;4.82;;;12.70;99.90;;;;;;5098920;27;20035;-72
2023/03/12 08:00:06;;;;;;;40.83;6.20;;;13.00;99.90;;;;;;5102285;27;20311;-72
2023/03/12 08:02:33;;;;;;;44.85;5.18;;;13.20;99.90;;;;;;5077454;28;20047;-73
2023/03/12 08:04:58;;;;;;;38.85;5.78;;;13.20;99.90;;;;;;5096163;28;20030;-72
2023/03/12 08:07:24;;;;;;;35.22;5.38;;;13.40;99.90;;;;;;5095331;27;20031;-72
2023/03/12 08:09:49;;;;;;;35.88;5.20;;;13.80;99.90;;;;;;5092016;28;20032;-74
2023/03/12 08:12:15;;;;;;;34.75;4.85;;;14.00;99.90;;;;;;5102953;27;20027;-74
2023/03/12 08:14:41;;;;;;;29.60;4.78;;;14.40;97.10;;;;;;5097695;28;20035;-74
2023/03/12 08:17:07;;;;;;;34.70;5.25;;;15.00;95.50;;;;;;5095616;28;20028;-74
2023/03/12 08:19:32;;;;;;;27.20;4.88;;;15.70;89.20;;;;;;5087381;28;20150;-74
2023/03/12 08:21:58;;;;;;;31.55;4.10;;;16.50;86.40;;;;;;5097685;28;20110;-74
2023/03/12 08:24:24;;;;;;;30.67;4.85;;;17.00;74.30;;;;;;5101357;28;20646;-74
2023/03/12 08:26:49;;;;;;;28.55;5.38;;;17.90;67.80;;;;;;5085910;28;20436;-73
2023/03/12 08:29:16;;;;;;;26.10;4.30;;;18.70;66.90;;;;;;5095019;28;20260;-73
2023/03/12 08:31:42;;;;;;;25.38;4.05;;;19.60;59.30;;;;;;5100635;28;20465;-75
2023/03/12 08:34:07;;;;;;;20.83;4.15;;;20.30;56.10;;;;;;5082274;28;20040;-74
2023/03/12 08:36:34;;;;;;;21.17;4.45;;;21.10;54.30;;;;;;5092312;28;20388;-75
2023/03/12 08:39:00;;;;;;;24.35;4.40;;;21.50;52.40;;;;;;5089904;28;20203;-74
2023/03/12 08:41:26;;;;;;;20.52;4.30;;;22.70;49.60;;;;;;5092693;28;20231;-75
2023/03/12 08:43:51;;;;;;;18.92;3.72;;;23.20;47.90;;;;;;5099310;27;20034;-74
2023/03/12 08:46:17;;;;;;;21.52;4.30;;;23.30;45.70;;;;;;5099289;27;20486;-74
2023/03/12 08:48:43;;;;;;;24.13;4.50;;;23.50;46.30;;;;;;5094747;27;20066;-74
2023/03/12 08:51:08;;;;;;;23.10;4.82;;;23.10;46.30;;;;;;5082144;27;20027;-75
2023/03/12 08:53:35;;;;;;;22.13;4.15;;;23.90;46.90;;;;;;5096132;27;20035;-75
2023/03/12 08:56:01;;;;;;;22.05;4.38;;;24.30;43.20;;;;;;5094108;27;20072;-74
2023/03/12 08:58:27;;;;;;;20.13;4.07;;;24.90;43.40;;;;;;5074757;28;20046;-74
2023/03/12 09:00:54;;;;;;;22.80;4.65;;;25.80;42.20;;;;;;5091147;28;20045;-75
2023/03/12 09:03:21;;;;;;;22.67;3.92;;;25.90;40.70;;;;;;5076528;28;20067;-75
2023/03/12 09:05:47;;;;;;;18.85;3.88;;;26.10;40.30;;;;;;5092003;28;20031;-74
2023/03/12 09:08:13;;;;;;;21.70;4.68;;;26.00;39.10;;;;;;5100595;27;20103;-75
2023/03/12 09:10:38;;;;;;;18.35;4.63;;;26.50;41.00;;;;;;5092357;27;20134;-73
2023/03/12 09:13:05;;;;;;;25.13;5.28;;;26.60;38.80;;;;;;5098491;28;20104;-75
2023/03/12 09:15:30;;;;;;;23.42;5.60;;;25.40;39.90;;;;;;5098503;27;20047;-74
2023/03/12 09:17:56;;;;;;;24.38;4.65;;;25.30;40.30;;;;;;5118900;27;20041;-74
2023/03/12 09:20:22;;;;;;;24.50;4.82;;;25.00;40.50;;;;;;5119512;27;20027;-75
2023/03/12 09:22:48;;;;;;;27.73;5.32;;;23.90;43.20;;;;;;5096729;28;20031;-75
2023/03/12 09:25:14;;;;;;;24.85;5.00;;;22.90;45.00;;;;;;5098522;28;20088;-75
2023/03/12 09:27:45;;;;;;;28.88;5.60;;;21.70;48.90;;;;;;5086838;27;20107;-74
2023/03/12 09:30:14;;;;;;;33.22;6.22;;;20.40;50.70;;;;;;5092037;27;20047;-75
2023/03/12 09:32:40;;;;;;;30.20;5.25;;;19.00;54.20;;;;;;5086825;27;20039;-74
2023/03/12 09:35:07;;;;;;;38.78;5.43;;;17.20;62.20;;;;;;5085594;27;20458;-74
2023/03/12 09:37:34;;;;;;;36.63;5.20;;;16.40;72.90;;;;;;5086276;27;20035;-74
2023/03/12 09:40:00;;;;;;;36.38;5.05;;;15.90;83.70;;;;;;5084443;28;20055;-74
2023/03/12 09:42:37;;;;;;;33.45;5.97;;;15.80;88.10;;;;;;5070313;28;20475;-75
2023/03/12 09:45:06;;;;;;;33.92;5.20;;;15.60;83.90;;;;;;5067522;28;20035;-75
2023/03/12 09:47:45;;;;;;;31.60;5.13;;;15.60;91.40;;;;;;5086514;28;20031;-74
2023/03/12 09:50:20;;;;;;;37.88;5.40;;;15.90;89.40;;;;;;5082668;27;20036;-75
2023/03/12 09:53:01;;;;;;;31.15;4.57;;;15.50;86.90;;;;;;5083423;28;20093;-74
2023/03/12 09:55:35;;;;;;;32.72;5.53;;;15.40;91.50;;;;;;5081844;28;20536;-75
2023/03/12 09:58:01;;;;;;;32.72;5.43;;;15.10;92.20;;;;;;5084848;28;21170;-75
2023/03/12 10:00:32;;;;;;;34.92;5.80;;;14.90;92.00;;;;;;5084501;27;20043;-74
2023/03/12 10:03:17;;;;;;;;;;;14.70;92.30;;;;;;5083292;28;20035;-76
2023/03/12 10:05:52;;;;;;;34.08;4.47;;;14.60;97.50;;;;;;5094857;27;19919;-76
2023/03/12 10:08:26;;;;;;;31.42;5.13;;;14.60;97.00;;;;;;5099705;27;20023;-75
2023/03/12 10:11:07;;;;;;;38.70;5.10;;;14.80;97.50;;;;;;5095678;27;20038;-75
2023/03/12 10:13:57;;;;;;;36.53;5.87;;;14.80;94.10;;;;;;5093831;27;20084;-75
2023/03/12 10:16:59;;;;;;;28.13;4.57;;;14.80;94.10;;;;;;5085479;27;20286;-75
2023/03/12 10:19:59;;;;;;;29.83;5.03;;;15.10;92.00;;;;;;5076810;27;20035;-75
2023/03/12 10:23:00;;;;;;;27.52;4.45;;;14.90;93.50;;;;;;5047268;28;20040;-75
2023/03/12 10:25:49;;;;;;;30.30;4.43;;;15.20;92.50;;;;;;5046210;28;20051;-75
2023/03/12 10:28:41;;;;;;;27.30;4.18;;;15.00;92.50;;;;;;5097133;28;20268;-74
2023/03/12 10:31:12;;;;;;;;;;;14.80;93.00;;;;;;5098060;28;20042;-75
2023/03/12 10:34:05;;;;;;;27.08;3.95;;;14.60;93.40;;;;;;5086812;28;20121;-74
2023/03/12 10:36:38;;;;;;;33.72;4.85;;;14.70;96.10;;;;;;5079780;28;20032;-75
2023/03/12 10:39:14;;;;;;;28.58;5.65;;;14.40;99.00;;;;;;5091511;28;20042;-74
2023/03/12 10:41:42;;;;;;;34.60;4.60;;;14.40;95.90;;;;;;5072435;27;20055;-74
2023/03/12 10:44:08;;;;;;;31.27;5.57;;;14.50;99.90;;;;;;5090846;27;20114;-75
2023/03/12 10:46:39;;;;;;;40.10;4.72;;;14.90;98.90;;;;;;5094829;27;20096;-77
2023/03/12 10:49:20;;;;;;;30.65;4.50;;;15.90;95.10;;;;;;5063188;27;20505;-75
2023/03/12 10:52:15;;;;;;;22.98;4.28;;;17.80;72.00;;;;;;5092178;27;20031;-75
2023/03/12 10:54:43;;;;;;;28.70;4.22;;;19.30;59.60;;;;;;5088289;27;20532;-75
2023/03/12 10:57:10;;;;;;;19.70;4.50;;;20.90;55.90;;;;;;5094253;27;20024;-75
2023/03/12 10:59:44;;;;;;;23.85;4.32;;;21.20;52.20;;;;;;5093589;27;21285;-75
2023/03/12 11:02:33;;;;;;;19.63;3.92;;;20.90;50.90;;;;;;5096979;27;20028;-75
2023/03/12 11:05:01;;;;;;;23.67;4.25;;;20.70;53.80;;;;;;5093466;27;20027;-76
2023/03/12 11:07:32;;;;;;;29.92;5.28;;;21.70;52.20;;;;;;5076073;28;20498;-75
2023/03/12 11:10:07;;;;;;;;;;;21.50;47.80;;;;;;5094353;27;20621;-76
2023/03/12 11:12:38;;;;;;;33.33;5.57;;;20.60;53.20;;;;;;5107808;27;19978;-75
2023/03/12 11:15:27;;;;;;;28.00;5.50;;;20.40;53.30;;;;;;5087678;27;20510;-76
2023/03/12 11:18:21;;;;;;;38.42;6.32;;;20.10;53.90;;;;;;5104562;27;20031;-76
2023/03/12 11:20:49;;;;;;;36.95;6.20;;;19.90;54.30;;;;;;5095449;27;20031;-76
2023/03/12 11:23:43;;;;;;;30.08;5.82;;;18.80;56.40;;;;;;5092783;27;20078;-76
2023/03/12 11:26:21;;;;;;;36.30;6.35;;;19.00;59.00;;;;;;5071945;27;20388;-76
2023/03/12 11:29:01;;;;;;;35.05;5.82;;;19.10;58.40;;;;;;5096264;27;20047;-76
2023/03/12 11:31:38;;;;;;;35.83;6.22;;;19.00;59.30;;;;;;5075274;28;20028;-80
2023/03/12 11:34:07;;;;;;;41.67;7.30;;;19.70;58.10;;;;;;5087936;27;20027;-76
2023/03/12 11:36:53;;;;;;;42.35;6.35;;;20.00;56.40;;;;;;5088984;27;20050;-75
2023/03/12 11:39:40;;;;;;;40.30;7.05;;;19.90;57.90;;;;;;5086011;27;20050;-76
2023/03/12 11:42:47;;;;;;;38.35;6.30;;;19.40;59.60;;;;;;5091425;27;20444;-75
2023/03/12 11:45:16;;;;;;;41.42;6.40;;;18.70;60.10;;;;;;5009643;27;20043;-75
2023/03/12 11:47:48;;;;;;;43.53;5.88;;;18.00;62.20;;;;;;5090856;27;20020;-76
2023/03/12 11:50:17;;;;;;;43.85;6.88;;;17.20;63.80;;;;;;5097147;27;20494;-75
2023/03/12 11:52:50;;;;;;;43.90;6.43;;;16.70;69.10;;;;;;5090932;27;20070;-75
2023/03/12 11:55:28;;;;;;;42.08;6.28;;;16.40;75.00;;;;;;5092678;27;20539;-76
2023/03/12 11:58:18;;;;;;;38.97;6.20;;;16.30;78.70;;;;;;5094066;27;20460;-76
2023/03/12 12:01:24;;;;;;;33.28;4.70;;;16.40;81.50;;;;;;5083415;28;20030;-75
2023/03/12 12:04:09;;;;;;;37.35;5.30;;;17.00;78.70;;;;;;5064691;27;20138;-75
2023/03/12 12:07:02;;;;;;;31.67;4.55;;;17.60;66.70;;;;;;5095334;27;20397;-76
2023/03/12 12:09:55;;;;;;;36.63;5.28;;;18.00;65.30;;;;;;5074320;28;20397;-75
2023/03/12 12:12:39;;;;;;;34.13;4.85;;;17.00;70.10;;;;;;5082998;27;20776;-75
2023/03/12 12:15:24;;;;;;;29.65;4.57;;;16.80;77.10;;;;;;5091355;28;20486;-75
2023/03/12 12:17:55;;;;;;;24.20;4.05;;;16.60;76.30;;;;;;5072126;28;20355;-75
2023/03/12 12:20:42;;;;;;;29.48;4.35;;;16.40;77.40;;;;;;5099065;28;20183;-76
2023/03/12 12:23:27;;;;;;;24.30;3.33;;;16.20;81.70;;;;;;5092936;28;20028;-75
2023/03/12 12:26:12;;;;;;;19.80;2.97;;;16.00;84.00;;;;;;5073306;28;20085;-75
2023/03/12 12:28:52;;;;;;;13.50;1.83;;;16.00;85.10;;;;;;5092971;28;20534;-75
2023/03/12 12:31:50;;;;;;;7.97;1.40;;;15.70;88.30;;;;;;5094365;28;20184;-75
2023/03/12 12:34:47;;;;;;;10.30;1.27;;;15.90;85.70;;;;;;5087088;28;20032;-75
2023/03/12 12:37:13;;;;;;;7.22;1.42;;;15.80;87.90;;;;;;5045340;28;20071;-75
2023/03/12 12:39:45;;;;;;;10.32;1.42;;;16.00;84.70;;;;;;5042279;28;20041;-74
2023/03/12 12:42:17;;;;;;;13.85;1.85;;;16.10;80.60;;;;;;5050090;28;20091;-76
2023/03/12 12:44:47;;;;;;;13.93;2.35;;;16.10;80.50;;;;;;5046828;28;20073;-75
2023/03/12 12:47:18;;;;;;;17.67;2.80;;;15.90;90.10;;;;;;5047009;28;20033;-76
2023/03/12 12:49:50;;;;;;;20.80;3.08;;;15.60;90.50;;;;;;5034851;28;20093;-76
2023/03/12 12:52:20;;;;;;;16.83;2.55;;;15.60;90.70;;;;;;5066003;28;20035;-74
2023/03/12 12:55:05;;;;;;;11.77;2.20;;;14.80;92.90;;;;;;5030487;28;20110;-74